createdAt,value
2022-11-22T00:00:10.338Z,9.07
2022-11-22T00:03:13.535Z,9.17
2022-11-22T00:09:40.870Z,8.77
2022-11-22T00:12:44.681Z,9.13
2022-11-22T00:15:59.545Z,9.50
2022-11-22T00:19:02.324Z,8.50
2022-11-22T00:22:08.376Z,9.77
2022-11-22T00:25:11.616Z,10.07
2022-11-22T00:28:15.710Z,9.80
2022-11-22T00:31:18.517Z,9.63
2022-11-22T00:34:22.652Z,9.00
2022-11-22T00:37:26.940Z,8.50
2022-11-22T00:40:30.893Z,8.90
2022-11-22T00:43:35.016Z,9.65
2022-11-22T00:46:39.112Z,8.40
2022-11-22T00:49:41.914Z,8.17
2022-11-22T00:52:49.847Z,9.70
2022-11-22T00:55:52.811Z,9.27
2022-11-22T00:58:56.943Z,8.75
2022-11-22T01:01:59.777Z,9.17
2022-11-22T01:05:03.797Z,8.83
2022-11-22T01:08:08.358Z,9.98
2022-11-22T01:11:13.353Z,9.98
2022-11-22T01:14:16.434Z,10.18
2022-11-22T01:17:20.684Z,10.57
2022-11-22T01:20:25.256Z,10.67
2022-11-22T01:23:30.624Z,10.25
2022-11-22T01:26:36.900Z,9.30
2022-11-22T01:29:41.293Z,9.68
2022-11-22T01:32:44.937Z,9.00
2022-11-22T01:35:49.117Z,10.63
2022-11-22T01:38:53.285Z,9.93
2022-11-22T01:41:57.387Z,10.07
2022-11-22T01:45:35.555Z,10.60
2022-11-22T01:48:52.297Z,10.50
2022-11-22T01:52:00.770Z,9.93
2022-11-22T01:55:09.538Z,11.35
2022-11-22T01:58:16.393Z,11.07
2022-11-22T02:01:19.281Z,10.65
2022-11-22T02:04:27.425Z,10.70
2022-11-22T02:07:37.829Z,9.70
2022-11-22T02:10:47.809Z,11.05
2022-11-22T02:13:54.748Z,10.75
2022-11-22T02:16:57.635Z,10.00
2022-11-22T02:20:01.630Z,10.63
2022-11-22T02:23:11.320Z,8.83
2022-11-22T02:26:17.210Z,9.85
2022-11-22T02:32:42.530Z,10.30
2022-11-22T02:35:46.945Z,11.50
2022-11-22T02:38:49.919Z,11.33
2022-11-22T02:41:57.926Z,9.95
2022-11-22T02:45:01.915Z,9.50
2022-11-22T02:48:09.674Z,10.30
2022-11-22T02:51:17.924Z,10.30
2022-11-22T02:54:21.062Z,10.53
2022-11-22T02:57:26.476Z,11.25
2022-11-22T03:00:29.396Z,10.05
2022-11-22T03:03:34.446Z,10.57
2022-11-22T03:06:37.127Z,10.47
2022-11-22T03:09:41.137Z,10.93
2022-11-22T03:12:46.478Z,11.05
2022-11-22T03:15:49.264Z,10.13
2022-11-22T03:18:53.197Z,10.80
2022-11-22T03:21:55.834Z,11.03
2022-11-22T03:24:59.844Z,10.50
2022-11-22T03:28:03.906Z,10.40
2022-11-22T03:31:08.655Z,10.57
2022-11-22T03:34:12.920Z,10.23
2022-11-22T03:37:16.979Z,10.80
2022-11-22T03:40:21.091Z,10.77
2022-11-22T03:43:26.595Z,9.93
2022-11-22T03:46:29.411Z,9.70
2022-11-22T03:49:33.480Z,10.15
2022-11-22T03:52:36.225Z,10.63
2022-11-22T03:55:38.927Z,10.53
2022-11-22T03:58:44.244Z,10.48
2022-11-22T04:01:48.304Z,10.30
2022-11-22T04:04:51.063Z,11.95
2022-11-22T04:07:57.307Z,9.90
2022-11-22T04:10:59.991Z,10.50
2022-11-22T04:14:21.949Z,10.20
2022-11-22T04:17:38.532Z,9.80
2022-11-22T04:21:01.203Z,10.38
2022-11-22T04:24:24.454Z,10.57
2022-11-22T04:27:28.385Z,9.73
2022-11-22T04:30:51.752Z,9.63
2022-11-22T04:33:55.755Z,10.90
2022-11-22T04:36:58.741Z,9.90
2022-11-22T04:40:02.703Z,10.30
2022-11-22T04:43:23.273Z,10.20
2022-11-22T04:46:28.638Z,10.98
2022-11-22T04:49:31.470Z,10.25
2022-11-22T04:52:51.856Z,10.25
2022-11-22T04:55:54.772Z,9.23
2022-11-22T04:58:57.461Z,10.27
2022-11-22T05:02:02.827Z,11.57
2022-11-22T05:05:06.280Z,10.48
2022-11-22T05:08:11.058Z,10.82
2022-11-22T05:11:13.745Z,9.83
2022-11-22T05:14:16.495Z,10.93
2022-11-22T05:17:21.846Z,10.40
2022-11-22T05:20:24.525Z,10.68
2022-11-22T05:23:44.623Z,11.60
2022-11-22T05:26:47.287Z,10.57
2022-11-22T05:29:51.382Z,11.18
2022-11-22T05:32:56.000Z,10.73
2022-11-22T05:36:01.017Z,11.65
2022-11-22T05:39:04.945Z,11.35
2022-11-22T05:42:08.995Z,11.50
2022-11-22T05:45:12.155Z,11.95
2022-11-22T05:48:17.468Z,11.57
2022-11-22T05:51:22.101Z,10.70
2022-11-22T05:54:26.067Z,11.70
2022-11-22T05:57:29.236Z,11.68
2022-11-22T06:00:33.167Z,10.77
2022-11-22T06:03:38.068Z,11.03
2022-11-22T06:06:42.119Z,12.27
2022-11-22T06:09:44.848Z,10.98
2022-11-22T06:12:48.758Z,10.95
2022-11-22T06:15:51.425Z,10.43
2022-11-22T06:18:57.153Z,10.63
2022-11-22T06:21:59.878Z,11.27
2022-11-22T06:25:03.889Z,12.43
2022-11-22T06:31:30.802Z,10.27
2022-11-22T06:34:35.093Z,10.77
2022-11-22T06:37:37.867Z,11.00
2022-11-22T06:40:41.843Z,10.30
2022-11-22T06:43:48.989Z,10.77
2022-11-22T06:46:52.244Z,11.18
2022-11-22T06:49:57.545Z,10.90
2022-11-22T06:53:00.230Z,10.70
2022-11-22T06:56:03.621Z,11.40
2022-11-22T06:59:08.029Z,10.43
2022-11-22T07:02:13.081Z,10.65
2022-11-22T07:05:25.762Z,10.17
2022-11-22T07:08:29.089Z,10.35
2022-11-22T07:11:34.195Z,9.95
2022-11-22T07:14:38.587Z,10.10
2022-11-22T07:17:42.295Z,9.82
2022-11-22T07:20:48.107Z,9.63
2022-11-22T07:23:52.151Z,11.32
2022-11-22T07:26:54.857Z,9.68
2022-11-22T07:29:58.801Z,10.68
2022-11-22T07:33:01.462Z,11.00
2022-11-22T07:36:11.507Z,11.13
2022-11-22T07:39:14.480Z,10.05
2022-11-22T07:42:22.344Z,11.13
2022-11-22T07:45:28.741Z,11.15
2022-11-22T07:48:31.588Z,11.38
2022-11-22T07:51:35.598Z,10.83
2022-11-22T07:54:39.568Z,11.10
2022-11-22T07:57:42.362Z,10.77
2022-11-22T08:00:45.034Z,10.45
2022-11-22T08:03:49.254Z,11.07
2022-11-22T08:06:53.322Z,10.20
2022-11-22T08:09:56.930Z,11.02
2022-11-22T08:13:01.049Z,11.60
2022-11-22T08:16:06.113Z,11.38
2022-11-22T08:19:08.975Z,10.88
2022-11-22T08:22:14.332Z,11.40
2022-11-22T08:25:17.356Z,9.48
2022-11-22T08:28:20.187Z,11.48
2022-11-22T08:31:22.874Z,10.80
2022-11-22T08:34:25.927Z,10.60
2022-11-22T08:37:31.916Z,10.77
2022-11-22T08:40:41.173Z,11.30
2022-11-22T08:43:44.771Z,11.60
2022-11-22T08:46:48.976Z,12.10
2022-11-22T08:49:51.679Z,11.43
2022-11-22T08:52:57.055Z,10.47
2022-11-22T08:56:01.949Z,12.30
2022-11-22T08:59:06.368Z,11.68
2022-11-22T09:02:10.714Z,10.52
2022-11-22T09:05:14.685Z,11.73
2022-11-22T09:11:26.257Z,10.95
2022-11-22T09:14:29.284Z,11.63
2022-11-22T09:17:34.742Z,11.20
2022-11-22T09:20:39.112Z,11.68
2022-11-22T09:23:44.447Z,12.17
2022-11-22T09:26:47.239Z,11.95
2022-11-22T09:29:50.046Z,12.65
2022-11-22T09:32:54.026Z,10.55
2022-11-22T09:36:07.426Z,12.48
2022-11-22T09:43:04.158Z,11.75
2022-11-22T09:46:17.171Z,11.13
2022-11-22T09:49:28.555Z,12.07
2022-11-22T09:52:35.854Z,12.55
2022-11-22T09:55:44.652Z,13.87
2022-11-22T09:58:51.550Z,11.95
2022-11-22T10:02:11.595Z,12.02
2022-11-22T10:05:26.392Z,12.82
2022-11-22T10:08:40.982Z,12.20
2022-11-22T10:11:50.248Z,11.53
2022-11-22T10:14:58.824Z,12.38
2022-11-22T10:18:05.771Z,12.63
2022-11-22T10:21:12.638Z,12.27
2022-11-22T10:24:18.126Z,11.73
2022-11-22T10:27:22.882Z,12.07
2022-11-22T10:30:26.203Z,12.55
2022-11-22T10:37:07.457Z,11.68
2022-11-22T10:40:18.212Z,12.50
2022-11-22T10:43:35.325Z,12.93
2022-11-22T10:46:48.540Z,12.35
2022-11-22T10:50:00.857Z,12.68
2022-11-22T10:53:13.645Z,12.43
2022-11-22T10:56:28.182Z,13.38
2022-11-22T10:59:45.901Z,11.77
2022-11-22T11:03:07.150Z,11.63
2022-11-22T11:06:33.357Z,13.10
2022-11-22T11:13:15.317Z,11.50
2022-11-22T11:16:24.503Z,12.47
2022-11-22T11:19:31.352Z,12.60
2022-11-22T11:26:20.487Z,12.68
2022-11-22T11:29:38.467Z,11.93
2022-11-22T11:32:54.103Z,12.37
2022-11-22T11:36:02.438Z,11.65
2022-11-22T11:39:06.547Z,11.88
2022-11-22T11:42:23.618Z,11.98
2022-11-22T11:45:30.188Z,13.05
2022-11-22T11:48:41.049Z,12.33
2022-11-22T11:55:06.177Z,13.13
2022-11-22T11:58:21.323Z,11.82
2022-11-22T12:04:52.382Z,12.13
2022-11-22T12:07:55.203Z,11.57
2022-11-22T12:11:03.912Z,11.77
2022-11-22T12:14:19.926Z,11.23
2022-11-22T12:17:28.820Z,12.15
2022-11-22T12:24:41.426Z,12.73
2022-11-22T12:27:37.878Z,12.88
2022-11-22T12:30:44.067Z,12.60
2022-11-22T12:33:55.365Z,13.23
2022-11-22T12:37:06.643Z,12.93
2022-11-22T12:40:18.177Z,12.25
2022-11-22T12:43:27.360Z,12.73
2022-11-22T12:46:39.600Z,12.75
2022-11-22T12:49:46.770Z,13.30
2022-11-22T12:52:56.504Z,12.40
2022-11-22T12:56:03.350Z,11.27
2022-11-22T12:59:21.043Z,11.88
2022-11-22T13:02:33.366Z,11.80
2022-11-22T13:05:45.270Z,13.02
2022-11-22T13:09:03.222Z,12.57
2022-11-22T13:12:11.842Z,12.52
2022-11-22T13:15:17.982Z,11.95
2022-11-22T13:18:21.874Z,12.73
2022-11-22T13:21:32.417Z,16.10
2022-11-22T13:24:49.145Z,12.87
2022-11-22T13:27:54.357Z,12.65
2022-11-22T13:31:15.164Z,12.95
2022-11-22T13:34:26.539Z,12.32
2022-11-22T13:37:31.971Z,13.00
2022-11-22T13:40:40.978Z,12.07
2022-11-22T13:43:54.573Z,12.07
2022-11-22T13:47:01.478Z,13.23
2022-11-22T13:50:53.511Z,12.45
2022-11-22T13:54:41.930Z,12.73
2022-11-22T13:57:47.324Z,12.33
2022-11-22T14:00:50.314Z,13.02
2022-11-22T14:03:54.459Z,13.10
2022-11-22T14:07:02.780Z,13.02
2022-11-22T14:10:21.990Z,13.43
2022-11-22T14:13:36.867Z,12.20
2022-11-22T14:16:54.815Z,13.40
2022-11-22T14:20:06.534Z,12.23
2022-11-22T14:23:19.829Z,12.68
2022-11-22T14:26:30.549Z,14.20
2022-11-22T14:30:04.526Z,12.03
2022-11-22T14:33:16.783Z,11.13
2022-11-22T14:36:19.546Z,11.88
2022-11-22T14:40:07.145Z,11.95
2022-11-22T14:43:29.725Z,12.20
2022-11-22T14:46:56.542Z,12.07
2022-11-22T14:50:01.157Z,12.30
2022-11-22T14:53:16.611Z,12.25
2022-11-22T14:56:25.944Z,12.77
2022-11-22T14:59:52.165Z,12.10
2022-11-22T15:03:31.521Z,11.93
2022-11-22T15:09:18.106Z,12.23
2022-11-22T15:10:26.850Z,12.85
2022-11-22T15:13:46.346Z,12.77
2022-11-22T15:58:47.866Z,13.27
2022-11-22T16:01:50.859Z,13.40
2022-11-22T16:06:06.254Z,13.18
2022-11-22T16:08:22.357Z,13.55
2022-11-22T16:11:31.043Z,14.27
2022-11-22T16:14:49.828Z,13.98
2022-11-22T16:17:59.642Z,15.23
2022-11-22T16:21:05.907Z,14.30
2022-11-22T16:24:12.625Z,14.07
2022-11-22T16:27:17.671Z,14.23
2022-11-22T16:30:23.727Z,13.82
2022-11-22T16:33:28.136Z,15.00
2022-11-22T16:36:31.183Z,14.10
2022-11-22T16:39:34.216Z,13.93
2022-11-22T16:42:39.261Z,12.37
2022-11-22T16:45:45.110Z,14.18
2022-11-22T16:48:48.414Z,13.70
2022-11-22T16:55:16.270Z,14.25
2022-11-22T16:58:20.306Z,14.13
2022-11-22T17:01:27.583Z,14.27
2022-11-22T17:04:30.817Z,13.93
2022-11-22T17:07:33.545Z,13.18
2022-11-22T17:10:37.400Z,13.52
2022-11-22T17:13:40.085Z,13.47
2022-11-22T17:16:46.987Z,13.18
2022-11-22T17:19:53.855Z,14.23
2022-11-22T17:22:56.783Z,13.63
2022-11-22T17:25:59.521Z,13.43
2022-11-22T17:29:02.177Z,13.37
2022-11-22T17:32:06.719Z,13.18
2022-11-22T17:35:10.908Z,12.70
2022-11-22T17:38:13.618Z,15.23
2022-11-22T17:41:16.421Z,12.27
2022-11-22T17:44:20.557Z,13.45
2022-11-22T17:47:24.622Z,14.10
2022-11-22T17:50:28.630Z,14.23
2022-11-22T17:53:32.640Z,13.40
2022-11-22T17:56:36.179Z,14.80
2022-11-22T17:59:38.850Z,13.48
2022-11-22T18:02:43.227Z,14.05
2022-11-22T18:05:47.197Z,14.57
2022-11-22T18:08:51.454Z,14.50
2022-11-22T18:11:55.397Z,13.87
2022-11-22T18:14:58.046Z,14.48
2022-11-22T18:18:03.433Z,13.07
2022-11-22T18:21:11.442Z,13.10
2022-11-22T18:24:18.148Z,13.33
2022-11-22T18:27:22.778Z,14.40
2022-11-22T18:30:25.436Z,12.90
2022-11-22T18:33:34.621Z,14.63
2022-11-22T18:36:54.537Z,15.43
2022-11-22T18:39:59.567Z,13.67
2022-11-22T18:43:02.259Z,13.27
2022-11-22T18:46:07.942Z,14.55
2022-11-22T18:49:13.402Z,15.23
2022-11-22T18:52:18.108Z,15.23
2022-11-22T18:55:21.664Z,14.40
2022-11-22T18:58:24.414Z,14.77
2022-11-22T19:01:30.407Z,15.27
2022-11-22T19:04:34.798Z,14.55
2022-11-22T19:07:37.763Z,13.35
2022-11-22T19:10:40.623Z,13.47
2022-11-22T19:13:44.973Z,14.43
2022-11-22T19:16:47.747Z,14.25
2022-11-22T19:19:58.150Z,14.68
2022-11-22T19:23:03.544Z,13.35
2022-11-22T19:26:08.533Z,13.87
2022-11-22T19:29:12.561Z,14.60
2022-11-22T19:35:41.684Z,12.52
2022-11-22T19:38:46.303Z,13.63
2022-11-22T19:41:50.286Z,13.10
2022-11-22T19:44:52.986Z,13.67
2022-11-22T19:47:57.359Z,13.93
2022-11-22T19:51:05.985Z,14.68
2022-11-22T19:54:08.871Z,14.48
2022-11-22T19:57:12.815Z,14.20
2022-11-22T20:00:16.881Z,13.67
2022-11-22T20:03:19.584Z,13.00
2022-11-22T20:06:24.071Z,13.70
2022-11-22T20:09:28.115Z,13.07
2022-11-22T20:12:31.122Z,14.43
2022-11-22T20:15:35.122Z,14.17
2022-11-22T20:18:38.098Z,13.20
2022-11-22T20:21:42.370Z,13.77
2022-11-22T20:24:45.068Z,13.13
2022-11-22T20:27:49.050Z,13.27
2022-11-22T20:30:51.898Z,13.60
2022-11-22T20:33:57.584Z,13.68
2022-11-22T20:37:04.613Z,13.75
2022-11-22T20:40:08.851Z,13.98
2022-11-22T20:43:11.843Z,13.03
2022-11-22T20:46:16.466Z,13.77
2022-11-22T20:52:42.518Z,12.80
2022-11-22T20:55:45.236Z,14.20
2022-11-22T20:58:48.599Z,13.67
2022-11-22T21:01:52.569Z,13.73
2022-11-22T21:04:55.265Z,13.15
2022-11-22T21:08:03.888Z,14.00
2022-11-22T21:11:10.742Z,14.55
2022-11-22T21:14:14.774Z,13.07
2022-11-22T21:17:41.872Z,14.07
2022-11-22T21:20:41.388Z,13.43
2022-11-22T21:23:46.728Z,13.25
2022-11-22T21:26:51.967Z,13.23
2022-11-22T21:29:56.037Z,13.27
2022-11-22T21:33:00.007Z,14.23
2022-11-22T21:36:03.708Z,13.05
2022-11-22T21:39:07.807Z,12.43
2022-11-22T21:42:12.122Z,14.10
2022-11-22T21:45:14.955Z,13.87
2022-11-22T21:48:19.391Z,14.03
2022-11-22T21:51:23.045Z,13.95
2022-11-22T21:54:29.007Z,13.82
2022-11-22T21:57:31.941Z,12.75
2022-11-22T22:00:35.903Z,13.43
2022-11-22T22:03:40.054Z,13.17
2022-11-22T22:06:46.270Z,14.50
2022-11-22T22:09:50.454Z,14.43
2022-11-22T22:12:54.407Z,13.02
2022-11-22T22:15:58.321Z,13.87
2022-11-22T22:19:08.044Z,13.97
2022-11-22T22:22:11.986Z,13.48
2022-11-22T22:25:17.814Z,13.55
2022-11-22T22:28:20.496Z,14.10
2022-11-22T22:31:25.366Z,14.77
2022-11-22T22:34:29.514Z,15.13
2022-11-22T22:37:33.622Z,14.00
2022-11-22T22:40:38.927Z,14.43
2022-11-22T22:43:45.223Z,14.23
2022-11-22T22:46:49.255Z,10.45
2022-11-22T22:49:53.175Z,13.83
2022-11-22T22:52:55.851Z,13.20
2022-11-22T22:56:01.221Z,13.50
2022-11-22T22:59:07.759Z,13.90
2022-11-22T23:02:12.040Z,14.60
2022-11-22T23:05:16.169Z,13.63
2022-11-22T23:08:18.859Z,14.13
2022-11-22T23:11:46.059Z,14.18
2022-11-22T23:14:50.031Z,12.98
2022-11-22T23:17:53.345Z,13.63
2022-11-22T23:21:01.051Z,14.93
2022-11-22T23:24:07.277Z,13.43
2022-11-22T23:27:12.588Z,12.82
2022-11-22T23:30:17.293Z,15.25
2022-11-22T23:33:20.053Z,14.50
2022-11-22T23:36:25.109Z,14.60
2022-11-22T23:39:27.857Z,13.93
2022-11-22T23:42:33.231Z,14.88
2022-11-22T23:45:37.021Z,14.55
2022-11-22T23:48:39.707Z,15.38
2022-11-22T23:55:04.392Z,14.13
2022-11-22T23:58:09.682Z,15.70
